Time;durP1;ratioP1;P1;durP2;ratioP2;P2;SDS_P1;SDS_P2;PMS_P1;PMS_P2;Temp;Humidity;BMP_temperature;BMP_pressure;BME280_temperature;BME280_humidity;BME280_pressure;Samples;Min_cycle;Max_cycle;Signal;HPM_P1;HPM_P2
2022/10/14 00:01:02;;;;;;;0.40;0.40;;;;;;;10.13;100.00;101481.88;5000114;28;20766;-72
2022/10/14 00:03:28;;;;;;;0.40;0.40;;;;;;;10.19;100.00;101481.50;4997259;28;20044;-72
2022/10/14 00:05:54;;;;;;;0.50;0.50;;;;;;;10.26;100.00;101486.44;4998001;28;20022;-72
2022/10/14 00:08:19;;;;;;;0.10;0.10;;;;;;;10.41;100.00;101493.50;4998763;28;20525;-73
2022/10/14 00:10:44;;;;;;;0.20;0.20;;;;;;;10.41;100.00;101496.19;5002170;28;20034;-72
2022/10/14 00:13:10;;;;;;;0.10;0.10;;;;;;;10.41;100.00;101485.47;5001909;28;20435;-72
2022/10/14 00:15:39;;;;;;;0.10;0.10;;;;;;;10.31;100.00;101485.19;5000204;28;20030;-72
2022/10/14 00:18:05;;;;;;;0.10;0.10;;;;;;;10.33;100.00;101477.00;4977580;28;20022;-72
2022/10/14 00:20:30;;;;;;;0.10;0.10;;;;;;;10.29;100.00;101468.31;4998405;28;20372;-72
2022/10/14 00:22:56;;;;;;;0.10;0.10;;;;;;;10.42;100.00;101478.25;4995268;28;20033;-72
2022/10/14 00:25:21;;;;;;;0.10;0.10;;;;;;;10.35;100.00;101480.47;5000655;28;20332;-72
2022/10/14 00:27:46;;;;;;;0.10;0.10;;;;;;;10.28;100.00;101463.91;4999748;28;20398;-72
2022/10/14 00:30:12;;;;;;;0.10;0.10;;;;;;;10.40;100.00;101483.75;5000889;28;20479;-72
2022/10/14 00:32:37;;;;;;;0.10;0.10;;;;;;;10.35;100.00;101473.25;5000008;28;20111;-72
2022/10/14 00:35:03;;;;;;;0.10;0.10;;;;;;;10.38;100.00;101464.16;4999101;28;20475;-72
2022/10/14 00:37:28;;;;;;;0.10;0.10;;;;;;;10.55;100.00;101495.28;4998658;28;20474;-72
2022/10/14 00:39:53;;;;;;;0.10;0.10;;;;;;;10.54;100.00;101488.19;4994540;28;20029;-72
2022/10/14 00:42:19;;;;;;;0.10;0.10;;;;;;;10.57;100.00;101481.72;5000123;28;20038;-72
2022/10/14 00:44:44;;;;;;;0.10;0.10;;;;;;;10.54;100.00;101490.00;4999652;28;20033;-72
2022/10/14 00:47:09;;;;;;;0.10;0.10;;;;;;;10.36;100.00;101448.13;5000494;28;20034;-72
2022/10/14 00:49:38;;;;;;;0.10;0.10;;;;;;;10.61;100.00;101480.56;4995499;28;20037;-72
2022/10/14 00:52:11;;;;;;;0.10;0.10;;;;;;;10.67;100.00;101480.16;4998854;28;20021;-71
2022/10/14 00:54:40;;;;;;;0.10;0.10;;;;;;;10.59;100.00;101455.63;4998226;28;20064;-71
2022/10/14 00:57:05;;;;;;;0.10;0.10;;;;;;;10.79;100.00;101465.03;5016763;28;20042;-71
2022/10/14 00:59:32;;;;;;;0.10;0.10;;;;;;;10.86;100.00;101478.88;5000571;28;20036;-70
2022/10/14 01:01:57;;;;;;;0.10;0.10;;;;;;;10.91;100.00;101466.00;5000686;28;20084;-70
2022/10/14 01:04:23;;;;;;;0.10;0.10;;;;;;;10.90;100.00;101464.28;4984081;28;20504;-71
2022/10/14 01:06:58;;;;;;;0.20;0.20;;;;;;;11.02;100.00;101466.09;5003190;28;20563;-70
2022/10/14 01:09:31;;;;;;;0.10;0.10;;;;;;;11.07;100.00;101460.41;4996663;28;20128;-71
2022/10/14 01:12:21;;;;;;;0.10;0.10;;;;;;;11.12;100.00;101469.03;4982686;28;20025;-70
2022/10/14 01:15:03;;;;;;;0.10;0.10;;;;;;;11.07;100.00;101461.25;4996117;28;20025;-71
2022/10/14 01:17:41;;;;;;;0.17;0.17;;;;;;;10.91;100.00;101437.28;5000777;28;20075;-70
2022/10/14 01:20:15;;;;;;;0.17;0.17;;;;;;;11.01;100.00;101455.47;4992252;28;20372;-70
2022/10/14 01:22:46;;;;;;;0.10;0.10;;;;;;;10.92;100.00;101446.22;4997048;28;20061;-70
2022/10/14 01:25:19;;;;;;;0.10;0.10;;;;;;;10.77;100.00;101423.97;5017078;28;20030;-71
2022/10/14 01:27:53;;;;;;;0.15;0.15;;;;;;;10.95;100.00;101446.00;5002492;28;20030;-70
2022/10/14 01:30:19;;;;;;;;;;;;;;;10.90;100.00;101430.19;5002806;28;20033;-70
2022/10/14 01:32:58;;;;;;;0.10;0.10;;;;;;;10.96;100.00;101434.31;5001309;28;20217;-71
2022/10/14 01:35:31;;;;;;;0.10;0.10;;;;;;;10.83;100.00;101410.13;4999733;28;20169;-70
2022/10/14 01:37:59;;;;;;;0.10;0.10;;;;;;;10.95;100.00;101417.31;5000664;28;20401;-70
2022/10/14 01:40:36;;;;;;;0.10;0.10;;;;;;;10.96;100.00;101412.81;4985996;28;20120;-70
2022/10/14 01:43:02;;;;;;;0.20;0.20;;;;;;;11.04;100.00;101404.19;5003511;28;20048;-70
2022/10/14 01:45:29;;;;;;;0.10;0.10;;;;;;;11.08;100.00;101397.66;4998173;28;20025;-70
2022/10/14 01:47:55;;;;;;;0.13;0.13;;;;;;;11.06;100.00;101383.47;4983877;28;20408;-70
2022/10/14 01:50:23;;;;;;;0.20;0.20;;;;;;;11.20;100.00;101379.78;4986786;28;20494;-70
2022/10/14 01:52:57;;;;;;;0.22;0.22;;;;;;;11.22;100.00;101367.94;5002477;28;20029;-69
2022/10/14 01:55:23;;;;;;;;;;;;;;;11.34;100.00;101390.38;5002399;28;20057;-70
2022/10/14 01:57:50;;;;;;;0.13;0.13;;;;;;;11.16;100.00;101360.31;5018496;28;19921;-70
2022/10/14 02:00:15;;;;;;;0.20;0.20;;;;;;;11.29;100.00;101368.34;5017094;28;20308;-69
2022/10/14 02:02:41;;;;;;;0.20;0.20;;;;;;;11.13;100.00;101346.25;5001275;28;20361;-69
2022/10/14 02:05:13;;;;;;;0.20;0.20;;;;;;;11.29;100.00;101364.81;5002014;28;20034;-69
2022/10/14 02:07:42;;;;;;;0.20;0.20;;;;;;;11.46;100.00;101383.25;5003345;28;20057;-70
2022/10/14 02:10:28;;;;;;;0.10;0.10;;;;;;;11.47;100.00;101376.91;5017523;28;20030;-70
2022/10/14 02:13:12;;;;;;;0.20;0.20;;;;;;;11.58;100.00;101394.09;5001383;28;20121;-70
2022/10/14 02:15:53;;;;;;;0.20;0.20;;;;;;;11.54;100.00;101383.56;4998857;28;20392;-69
2022/10/14 02:18:23;;;;;;;0.20;0.20;;;;;;;11.57;100.00;101385.16;5020971;28;20030;-70
2022/10/14 02:20:54;;;;;;;0.20;0.20;;;;;;;11.60;100.00;101379.56;5001620;28;20029;-70
2022/10/14 02:23:23;;;;;;;0.20;0.20;;;;;;;11.57;100.00;101373.56;4998967;28;20369;-70
2022/10/14 02:25:49;;;;;;;0.20;0.20;;;;;;;11.72;100.00;101371.56;4997217;28;20028;-70
2022/10/14 02:28:17;;;;;;;0.20;0.20;;;;;;;11.66;100.00;101383.59;4986333;28;20114;-70
2022/10/14 02:30:47;;;;;;;0.10;0.10;;;;;;;11.70;100.00;101361.78;5017456;28;20044;-70
2022/10/14 02:33:13;;;;;;;0.20;0.20;;;;;;;11.74;100.00;101366.94;5000119;28;20061;-70
2022/10/14 02:35:39;;;;;;;0.10;0.10;;;;;;;11.81;100.00;101366.34;5000157;28;20033;-70
2022/10/14 02:38:05;;;;;;;0.10;0.10;;;;;;;11.82;100.00;101359.13;5000471;28;20025;-70
2022/10/14 02:40:36;;;;;;;0.10;0.10;;;;;;;11.84;100.00;101371.50;4999892;28;20045;-70
2022/10/14 02:43:01;;;;;;;0.17;0.17;;;;;;;11.85;100.00;101369.66;4998934;28;20317;-70
2022/10/14 02:45:27;;;;;;;0.20;0.20;;;;;;;11.68;100.00;101354.78;4995407;28;21070;-70
2022/10/14 02:47:52;;;;;;;0.20;0.20;;;;;;;11.89;100.00;101373.84;5001341;28;20080;-69
2022/10/14 02:50:19;;;;;;;0.20;0.20;;;;;;;11.86;100.00;101376.75;5004548;28;20030;-69
2022/10/14 02:52:44;;;;;;;0.10;0.10;;;;;;;11.92;100.00;101384.38;4996104;28;20071;-70
2022/10/14 02:55:10;;;;;;;0.30;0.30;;;;;;;11.90;100.00;101370.19;4991541;28;20120;-70
2022/10/14 02:57:35;;;;;;;0.20;0.20;;;;;;;11.82;100.00;101362.69;5011191;28;20037;-69
2022/10/14 03:00:01;;;;;;;0.20;0.20;;;;;;;11.78;100.00;101352.28;4995251;28;20538;-70
2022/10/14 03:02:26;;;;;;;0.17;0.17;;;;;;;11.82;100.00;101351.06;4999954;28;20136;-71
2022/10/14 03:04:51;;;;;;;0.10;0.10;;;;;;;11.89;100.00;101364.91;4997559;28;20575;-72
2022/10/14 03:07:16;;;;;;;0.20;0.20;;;;;;;11.92;100.00;101360.16;4997087;28;20715;-71
2022/10/14 03:09:42;;;;;;;0.10;0.10;;;;;;;11.81;100.00;101349.31;5016914;28;20084;-71
2022/10/14 03:12:07;;;;;;;0.20;0.20;;;;;;;11.80;100.00;101347.63;5012857;28;20034;-71
2022/10/14 03:14:32;;;;;;;0.17;0.17;;;;;;;11.85;100.00;101346.31;4998668;28;20033;-71
2022/10/14 03:16:58;;;;;;;0.10;0.10;;;;;;;11.86;100.00;101349.84;5003424;28;20124;-71
2022/10/14 03:19:23;;;;;;;0.10;0.10;;;;;;;11.88;100.00;101339.00;5001746;28;20049;-71
2022/10/14 03:21:49;;;;;;;0.10;0.10;;;;;;;11.92;100.00;101340.47;5001756;28;20040;-71
2022/10/14 03:24:14;;;;;;;0.17;0.17;;;;;;;11.79;100.00;101322.56;4999170;28;20053;-71
2022/10/14 03:26:39;;;;;;;0.10;0.10;;;;;;;11.79;100.00;101316.31;4998695;28;20100;-69
2022/10/14 03:29:04;;;;;;;0.10;0.10;;;;;;;11.77;100.00;101300.28;5000912;28;20038;-72
2022/10/14 03:31:30;;;;;;;0.10;0.10;;;;;;;11.92;100.00;101327.03;4997518;28;20630;-71
2022/10/14 03:33:55;;;;;;;0.10;0.10;;;;;;;11.82;100.00;101308.88;4998597;28;20069;-71
2022/10/14 03:36:20;;;;;;;0.10;0.10;;;;;;;11.96;100.00;101323.09;4998986;28;20041;-70
2022/10/14 03:38:46;;;;;;;0.10;0.10;;;;;;;11.98;100.00;101329.22;4999016;28;20029;-70
2022/10/14 03:41:11;;;;;;;0.10;0.10;;;;;;;12.02;100.00;101330.75;5019825;28;20037;-71
2022/10/14 03:43:36;;;;;;;0.17;0.17;;;;;;;11.97;100.00;101314.06;5005544;28;20037;-71
2022/10/14 03:46:02;;;;;;;0.10;0.10;;;;;;;12.06;100.00;101324.16;5022095;28;20072;-70
2022/10/14 03:48:27;;;;;;;0.10;0.10;;;;;;;12.06;100.00;101321.47;4986903;28;20152;-71
2022/10/14 03:50:52;;;;;;;0.10;0.10;;;;;;;11.86;100.00;101287.97;4998438;28;20029;-70
2022/10/14 03:53:18;;;;;;;0.10;0.10;;;;;;;12.02;100.00;101316.44;4998734;28;20384;-70
2022/10/14 03:55:43;;;;;;;0.10;0.10;;;;;;;12.01;100.00;101312.88;5000670;28;20026;-70
2022/10/14 03:58:10;;;;;;;0.10;0.10;;;;;;;11.83;100.00;101288.19;5014752;28;20056;-70
2022/10/14 04:00:35;;;;;;;0.10;0.10;;;;;;;12.00;100.00;101308.47;5013637;28;20468;-70
2022/10/14 04:03:01;;;;;;;0.10;0.10;;;;;;;11.82;100.00;101284.66;4999458;28;20095;-71
2022/10/14 04:05:31;;;;;;;0.10;0.10;;;;;;;11.87;100.00;101291.53;4975617;28;20125;-71
2022/10/14 04:07:56;;;;;;;0.10;0.10;;;;;;;11.95;100.00;101305.22;4998141;28;20488;-71
2022/10/14 04:10:22;;;;;;;0.10;0.10;;;;;;;12.02;100.00;101303.00;4999683;28;20134;-71
2022/10/14 04:12:47;;;;;;;0.10;0.10;;;;;;;11.86;100.00;101282.59;4983153;28;20068;-71
2022/10/14 04:15:12;;;;;;;0.10;0.10;;;;;;;11.97;100.00;101301.47;4995725;28;20030;-71
2022/10/14 04:17:37;;;;;;;0.20;0.20;;;;;;;11.95;100.00;101287.28;4979912;28;20034;-71
2022/10/14 04:20:03;;;;;;;0.10;0.10;;;;;;;11.75;100.00;101252.97;4998576;28;20061;-71
2022/10/14 04:22:29;;;;;;;0.10;0.10;;;;;;;12.03;100.00;101288.56;5001968;28;20399;-72
2022/10/14 04:24:54;;;;;;;0.10;0.10;;;;;;;11.90;100.00;101267.09;4981347;28;20025;-72
2022/10/14 04:27:19;;;;;;;0.03;0.03;;;;;;;12.08;100.00;101287.22;4981654;28;20171;-71
2022/10/14 04:29:44;;;;;;;0.10;0.10;;;;;;;12.07;100.00;101290.88;4999728;28;20129;-72
2022/10/14 04:32:10;;;;;;;0.10;0.10;;;;;;;11.95;100.00;101265.75;4996884;28;20563;-72
2022/10/14 04:34:35;;;;;;;0.10;0.10;;;;;;;12.04;100.00;101269.59;4997044;28;20041;-70
2022/10/14 04:37:00;;;;;;;0.10;0.10;;;;;;;11.92;100.00;101252.53;5005258;28;20062;-70
2022/10/14 04:39:26;;;;;;;0.10;0.10;;;;;;;12.03;100.00;101267.03;4998794;28;20059;-70
2022/10/14 04:41:51;;;;;;;0.10;0.10;;;;;;;11.84;100.00;101253.13;4990755;28;20172;-70
2022/10/14 04:44:16;;;;;;;0.10;0.10;;;;;;;11.95;100.00;101262.19;4983637;28;20029;-70
2022/10/14 04:46:42;;;;;;;0.10;0.10;;;;;;;11.93;100.00;101258.75;5001025;28;20030;-70
2022/10/14 04:49:08;;;;;;;0.10;0.10;;;;;;;11.93;100.00;101256.94;5000553;28;20029;-70
2022/10/14 04:51:33;;;;;;;0.10;0.10;;;;;;;12.00;100.00;101266.28;4999489;28;20095;-70
2022/10/14 04:53:59;;;;;;;0.10;0.10;;;;;;;11.92;100.00;101257.06;4998975;28;20464;-69
2022/10/14 04:56:24;;;;;;;0.10;0.10;;;;;;;11.98;100.00;101262.81;5001696;28;20174;-71
2022/10/14 04:58:49;;;;;;;0.00;0.00;;;;;;;11.94;100.00;101253.28;5000773;28;20064;-71
2022/10/14 05:01:17;;;;;;;0.10;0.10;;;;;;;12.08;100.00;101262.13;5013836;28;20614;-70
2022/10/14 05:03:43;;;;;;;0.10;0.10;;;;;;;12.02;100.00;101271.53;5005363;28;20028;-71
2022/10/14 05:06:09;;;;;;;0.10;0.10;;;;;;;12.09;100.00;101266.53;5001047;28;20034;-71
2022/10/14 05:08:34;;;;;;;0.10;0.10;;;;;;;12.24;100.00;101248.31;5009872;28;20040;-72
2022/10/14 05:11:00;;;;;;;0.10;0.10;;;;;;;11.96;100.00;101215.47;5002773;28;20033;-72
2022/10/14 05:13:25;;;;;;;0.10;0.10;;;;;;;12.08;100.00;101256.75;5003135;28;20025;-71
2022/10/14 05:15:51;;;;;;;0.10;0.10;;;;;;;12.00;100.00;101255.53;5008874;28;20468;-71
2022/10/14 05:18:16;;;;;;;0.10;0.10;;;;;;;12.09;100.00;101253.06;5001433;28;20029;-71
2022/10/14 05:20:41;;;;;;;0.10;0.10;;;;;;;12.13;100.00;101236.59;5001526;28;20045;-71
2022/10/14 05:23:07;;;;;;;0.20;0.20;;;;;;;12.04;100.00;101220.31;5005781;28;20025;-72
2022/10/14 05:25:32;;;;;;;0.10;0.10;;;;;;;11.99;100.00;101221.53;5002292;28;20045;-72
2022/10/14 05:27:57;;;;;;;0.10;0.10;;;;;;;12.16;100.00;101227.41;4998870;28;20488;-72
2022/10/14 05:30:23;;;;;;;0.10;0.10;;;;;;;12.10;100.00;101230.56;5001546;28;20037;-71
2022/10/14 05:32:48;;;;;;;0.10;0.10;;;;;;;11.93;100.00;101197.72;4995728;28;20602;-72
2022/10/14 05:35:14;;;;;;;0.10;0.10;;;;;;;12.07;100.00;101210.16;5003916;28;20046;-72
2022/10/14 05:37:39;;;;;;;0.10;0.10;;;;;;;12.04;100.00;101201.47;5004085;28;20465;-72
2022/10/14 05:40:05;;;;;;;0.15;0.15;;;;;;;12.19;100.00;101221.78;4997405;28;20044;-71
2022/10/14 05:42:31;;;;;;;0.20;0.20;;;;;;;12.10;100.00;101214.41;5000773;28;20040;-73
2022/10/14 05:44:56;;;;;;;0.10;0.10;;;;;;;12.08;100.00;101203.78;5000066;28;20511;-72
2022/10/14 05:47:21;;;;;;;0.10;0.10;;;;;;;12.11;100.00;101189.22;5018877;28;20048;-72
2022/10/14 05:49:46;;;;;;;0.10;0.10;;;;;;;12.18;100.00;101195.00;4999057;28;20021;-73
2022/10/14 05:52:12;;;;;;;0.17;0.17;;;;;;;12.22;100.00;101188.38;4996222;28;20020;-72
2022/10/14 05:54:37;;;;;;;0.20;0.20;;;;;;;12.24;100.00;101194.50;4994600;28;20034;-73
2022/10/14 05:57:02;;;;;;;0.10;0.10;;;;;;;12.08;100.00;101176.00;4996240;28;20029;-72
2022/10/14 05:59:28;;;;;;;0.20;0.20;;;;;;;12.21;100.00;101183.97;4985080;28;20744;-74
2022/10/14 06:01:55;;;;;;;0.10;0.10;;;;;;;12.12;100.00;101177.47;4992847;28;20380;-75
2022/10/14 06:04:20;;;;;;;0.20;0.20;;;;;;;12.32;100.00;101188.47;4998254;28;20042;-76
2022/10/14 06:06:46;;;;;;;0.10;0.10;;;;;;;12.21;100.00;101157.03;5002017;28;20038;-80
2022/10/14 06:09:11;;;;;;;0.10;0.10;;;;;;;12.39;100.00;101192.41;4999133;28;20045;-75
2022/10/14 06:11:37;;;;;;;0.20;0.20;;;;;;;12.39;100.00;101187.91;5001470;28;20556;-71
2022/10/14 06:14:02;;;;;;;0.10;0.10;;;;;;;12.36;100.00;101176.50;5020098;28;20546;-72
2022/10/14 06:16:28;;;;;;;0.20;0.20;;;;;;;12.28;100.00;101177.13;4998917;28;20026;-73
2022/10/14 06:18:53;;;;;;;0.20;0.20;;;;;;;12.30;100.00;101170.66;4999496;28;20426;-72
2022/10/14 06:21:18;;;;;;;0.17;0.17;;;;;;;12.18;100.00;101160.00;5003472;28;20037;-74
2022/10/14 06:23:44;;;;;;;0.20;0.20;;;;;;;12.25;100.00;101148.63;5003125;28;20506;-73
2022/10/14 06:26:09;;;;;;;0.10;0.10;;;;;;;12.40;100.00;101177.97;4997942;28;20488;-72
2022/10/14 06:28:35;;;;;;;0.10;0.10;;;;;;;12.38;100.00;101172.72;5001919;28;20420;-73
2022/10/14 06:31:01;;;;;;;0.15;0.15;;;;;;;12.37;100.00;101164.75;5001722;28;20030;-73
2022/10/14 06:33:27;;;;;;;0.20;0.20;;;;;;;12.34;100.00;101163.16;5005794;28;20380;-71
2022/10/14 06:35:52;;;;;;;0.10;0.10;;;;;;;12.34;100.00;101159.59;5005005;28;20368;-74
2022/10/14 06:38:18;;;;;;;0.10;0.10;;;;;;;12.40;100.00;101153.72;5023328;28;20030;-71
2022/10/14 06:40:43;;;;;;;0.10;0.10;;;;;;;12.56;100.00;101172.19;5010099;28;20060;-76
2022/10/14 06:43:08;;;;;;;0.10;0.10;;;;;;;12.25;100.00;101136.97;5000313;28;20029;-77
2022/10/14 06:45:34;;;;;;;0.20;0.20;;;;;;;12.47;100.00;101167.56;5004436;28;20029;-76
2022/10/14 06:47:59;;;;;;;0.10;0.10;;;;;;;12.40;100.00;101138.44;5005452;28;20032;-76
2022/10/14 06:50:25;;;;;;;0.15;0.15;;;;;;;12.43;100.00;101131.94;5004652;28;20077;-74
2022/10/14 06:52:50;;;;;;;0.15;0.15;;;;;;;12.53;100.00;101154.47;4999657;28;20038;-81
2022/10/14 06:55:16;;;;;;;0.10;0.10;;;;;;;12.56;100.00;101161.44;5003625;28;20112;-74
2022/10/14 06:57:42;;;;;;;0.10;0.10;;;;;;;12.62;100.00;101150.16;4996102;28;20034;-73
2022/10/14 07:00:08;;;;;;;0.10;0.10;;;;;;;12.55;100.00;101130.09;5012445;28;20801;-77
2022/10/14 07:02:34;;;;;;;0.10;0.10;;;;;;;12.56;100.00;101142.56;4989880;28;20026;-75
2022/10/14 07:04:59;;;;;;;0.13;0.13;;;;;;;12.41;100.00;101124.00;5022483;28;20048;-76
2022/10/14 07:07:24;;;;;;;0.20;0.20;;;;;;;12.54;100.00;101148.09;5004190;28;20129;-75
2022/10/14 07:09:50;;;;;;;0.10;0.10;;;;;;;12.53;100.00;101149.09;5003077;28;20488;-72
2022/10/14 07:12:15;;;;;;;0.17;0.17;;;;;;;12.62;100.00;101154.69;5004265;28;20107;-72
2022/10/14 07:14:41;;;;;;;0.10;0.10;;;;;;;12.49;100.00;101120.69;5004977;28;20099;-72
2022/10/14 07:17:07;;;;;;;0.10;0.10;;;;;;;12.66;100.00;101153.44;5004506;28;20032;-74
2022/10/14 07:19:33;;;;;;;0.10;0.10;;;;;;;12.65;100.00;101147.22;5006990;28;20447;-75
2022/10/14 07:21:59;;;;;;;0.10;0.10;;;;;;;12.54;100.00;101149.91;5003720;28;20524;-75
2022/10/14 07:24:24;;;;;;;0.10;0.10;;;;;;;12.59;100.00;101126.16;5004551;28;20500;-78
2022/10/14 07:26:49;;;;;;;0.10;0.10;;;;;;;12.58;100.00;101140.63;5003246;28;20064;-74
2022/10/14 07:29:15;;;;;;;0.10;0.10;;;;;;;12.56;100.00;101132.69;5006562;28;20040;-78
2022/10/14 07:31:40;;;;;;;0.10;0.10;;;;;;;12.64;100.00;101136.56;5002916;28;20411;-74
2022/10/14 07:34:06;;;;;;;0.10;0.10;;;;;;;12.55;100.00;101117.50;5003943;28;20072;-77
2022/10/14 07:36:31;;;;;;;0.10;0.10;;;;;;;12.83;100.00;101139.47;5005077;28;20035;-78
2022/10/14 07:38:56;;;;;;;0.10;0.10;;;;;;;12.87;100.00;101148.16;5002400;28;20034;-75
2022/10/14 07:41:23;;;;;;;0.10;0.10;;;;;;;12.54;100.00;101109.53;5002545;28;20065;-74
2022/10/14 07:43:56;;;;;;;0.10;0.10;;;;;;;12.78;100.00;101144.38;5016093;28;20122;-72
2022/10/14 07:46:31;;;;;;;0.10;0.10;;;;;;;12.74;100.00;101121.34;5003053;28;20048;-76
2022/10/14 07:49:06;;;;;;;0.10;0.10;;;;;;;12.80;100.00;101144.22;5001181;28;20063;-72
2022/10/14 07:51:32;;;;;;;0.10;0.10;;;;;;;12.96;100.00;101144.69;5001713;28;20025;-76
2022/10/14 07:53:59;;;;;;;0.17;0.17;;;;;;;12.90;100.00;101139.81;5002828;28;20065;-75
2022/10/14 07:56:25;;;;;;;0.10;0.10;;;;;;;12.85;100.00;101131.25;5004638;28;20554;-78
2022/10/14 07:58:50;;;;;;;0.10;0.10;;;;;;;13.03;100.00;101126.16;4987202;28;20037;-78
2022/10/14 08:01:17;;;;;;;0.10;0.10;;;;;;;12.92;100.00;101123.50;5000706;28;20555;-74
2022/10/14 08:03:43;;;;;;;0.10;0.10;;;;;;;12.96;100.00;101133.91;4983708;28;20411;-75
2022/10/14 08:06:08;;;;;;;0.10;0.10;;;;;;;13.01;100.00;101128.13;4997317;28;20471;-73
2022/10/14 08:08:34;;;;;;;0.10;0.10;;;;;;;12.91;100.00;101125.34;4987995;28;20057;-75
2022/10/14 08:11:28;;;;;;;0.10;0.10;;;;;;;12.98;100.00;101125.69;5000055;28;20052;-74
2022/10/14 08:13:54;;;;;;;0.10;0.10;;;;;;;13.01;100.00;101128.13;4990739;28;20467;-76
2022/10/14 08:16:25;;;;;;;0.10;0.10;;;;;;;13.13;100.00;101123.53;5005786;28;20124;-76
2022/10/14 08:18:51;;;;;;;0.10;0.10;;;;;;;12.84;100.00;101111.53;5006114;28;20064;-75
2022/10/14 08:21:18;;;;;;;0.10;0.10;;;;;;;12.97;100.00;101119.47;5002599;28;20033;-75
2022/10/14 08:23:43;;;;;;;0.10;0.10;;;;;;;13.15;100.00;101119.72;4998251;28;20026;-73
2022/10/14 08:26:27;;;;;;;0.10;0.10;;;;;;;13.04;100.00;101119.78;5004594;28;20107;-74
2022/10/14 08:28:53;;;;;;;;;;;;;;;13.12;100.00;101122.66;5002655;28;20013;-72
2022/10/14 08:31:19;;;;;;;0.10;0.10;;;;;;;13.01;100.00;101118.19;5005392;28;20380;-78
2022/10/14 08:33:44;;;;;;;0.10;0.10;;;;;;;13.07;100.00;101124.06;5018472;28;20026;-73
2022/10/14 08:36:10;;;;;;;0.10;0.10;;;;;;;13.10;100.00;101113.88;5007402;28;20124;-73
2022/10/14 08:38:35;;;;;;;0.03;0.03;;;;;;;13.16;100.00;101107.13;5006053;28;20033;-72
2022/10/14 08:41:15;;;;;;;0.10;0.10;;;;;;;13.09;100.00;101105.91;4998634;28;20041;-76
2022/10/14 08:43:53;;;;;;;0.00;0.00;;;;;;;13.27;100.00;101107.03;5000605;28;20543;-80
2022/10/14 08:46:29;;;;;;;0.08;0.08;;;;;;;13.29;100.00;101107.78;5019089;28;20042;-72
2022/10/14 08:49:01;;;;;;;0.10;0.10;;;;;;;13.37;100.00;101109.84;4999976;28;20605;-72
2022/10/14 08:51:29;;;;;;;0.10;0.10;;;;;;;13.31;100.00;101078.84;5003385;28;20039;-78
2022/10/14 08:53:58;;;;;;;0.10;0.10;;;;;;;13.59;100.00;101106.16;4999960;28;20129;-76
2022/10/14 08:56:24;;;;;;;0.10;0.10;;;;;;;13.49;100.00;101110.66;5009863;28;20056;-72
2022/10/14 08:58:51;;;;;;;0.10;0.10;;;;;;;13.55;100.00;101117.34;5000136;28;20399;-74
2022/10/14 09:01:26;;;;;;;0.10;0.10;;;;;;;13.45;100.00;101109.19;5006088;28;20061;-72
2022/10/14 09:03:57;;;;;;;0.10;0.10;;;;;;;13.54;100.00;101113.78;4988583;28;20418;-72
2022/10/14 09:06:28;;;;;;;0.10;0.10;;;;;;;13.69;100.00;101125.09;5004659;28;20029;-76
2022/10/14 09:08:58;;;;;;;0.00;0.00;;;;;;;13.70;100.00;101093.59;4998387;28;20045;-73
2022/10/14 09:11:33;;;;;;;0.10;0.10;;;;;;;13.66;100.00;101106.47;5019005;28;20053;-72
2022/10/14 09:14:00;;;;;;;0.10;0.10;;;;;;;13.46;100.00;101100.97;5008772;28;20585;-72
2022/10/14 09:16:36;;;;;;;0.10;0.10;;;;;;;13.68;100.00;101118.00;5006108;28;20034;-73
2022/10/14 09:19:13;;;;;;;0.05;0.05;;;;;;;13.50;100.00;101086.22;5005301;28;20488;-73
2022/10/14 09:21:43;;;;;;;0.10;0.10;;;;;;;13.67;100.00;101110.03;4988208;28;20055;-72
2022/10/14 09:24:22;;;;;;;0.10;0.10;;;;;;;13.71;100.00;101096.13;4995286;28;20135;-74
2022/10/14 09:26:50;;;;;;;0.10;0.10;;;;;;;13.85;100.00;101107.59;5005664;28;20038;-73
2022/10/14 09:29:24;;;;;;;0.00;0.00;;;;;;;13.67;100.00;101065.00;4993165;28;20060;-73
2022/10/14 09:31:49;;;;;;;0.10;0.10;;;;;;;13.77;100.00;101062.38;4999051;28;20056;-75
2022/10/14 09:34:21;;;;;;;0.10;0.10;;;;;;;14.01;100.00;101090.91;5002565;28;20113;-74
2022/10/14 09:36:48;;;;;;;0.00;0.00;;;;;;;13.79;100.00;101065.78;5008851;28;20113;-74
2022/10/14 09:39:13;;;;;;;0.10;0.10;;;;;;;13.85;100.00;101086.00;4987609;28;20033;-76
2022/10/14 09:41:39;;;;;;;0.00;0.00;;;;;;;13.81;100.00;101082.69;5001671;28;20053;-73
2022/10/14 09:44:21;;;;;;;0.10;0.10;;;;;;;13.84;100.00;101071.63;5004969;28;20069;-73
2022/10/14 09:47:07;;;;;;;0.10;0.10;;;;;;;14.01;100.00;101091.72;5005479;28;20068;-77
2022/10/14 09:49:41;;;;;;;0.10;0.10;;;;;;;14.12;100.00;101087.25;5005101;28;20061;-78
2022/10/14 09:52:21;;;;;;;0.00;0.00;;;;;;;14.07;100.00;101085.78;5005186;28;20105;-73
2022/10/14 09:54:52;;;;;;;0.10;0.10;;;;;;;14.00;100.00;101083.78;5004387;28;20476;-73
2022/10/14 09:57:18;;;;;;;0.00;0.00;;;;;;;14.09;100.00;101069.44;5005342;28;20036;-74
2022/10/14 09:59:53;;;;;;;0.03;0.03;;;;;;;13.94;100.00;101055.47;4998106;28;20034;-75
2022/10/14 10:02:25;;;;;;;0.10;0.10;;;;;;;14.01;100.00;101061.19;5006689;28;20109;-75
2022/10/14 10:04:53;;;;;;;0.05;0.05;;;;;;;14.19;100.00;101082.97;4990688;28;20244;-75
2022/10/14 10:07:33;;;;;;;0.10;0.10;;;;;;;14.25;100.00;101077.03;5009928;28;20570;-78
2022/10/14 10:10:00;;;;;;;0.00;0.00;;;;;;;14.40;100.00;101080.19;5007893;28;20159;-74
2022/10/14 10:12:32;;;;;;;0.00;0.00;;;;;;;14.30;100.00;101061.28;5007412;28;20018;-73
2022/10/14 10:15:02;;;;;;;0.05;0.05;;;;;;;14.40;100.00;101081.06;5007127;28;20144;-74
2022/10/14 10:17:34;;;;;;;0.00;0.00;;;;;;;14.45;100.00;101087.88;5001918;28;20029;-72
2022/10/14 10:20:18;;;;;;;0.03;0.03;;;;;;;14.26;100.00;101078.75;4998794;28;20056;-78
2022/10/14 10:22:44;;;;;;;;;;;;;;;14.24;100.00;101073.50;5002269;28;20030;-76
2022/10/14 10:25:10;;;;;;;0.10;0.10;;;;;;;14.30;100.00;101069.38;5002152;28;19940;-73
2022/10/14 10:27:41;;;;;;;0.00;0.00;;;;;;;14.31;100.00;101070.22;5008746;28;20033;-76
2022/10/14 10:30:15;;;;;;;0.00;0.00;;;;;;;14.25;100.00;101064.41;5005999;28;20094;-75
2022/10/14 10:32:46;;;;;;;0.10;0.10;;;;;;;14.29;100.00;101043.34;5022918;28;20021;-75
2022/10/14 10:35:52;;;;;;;0.10;0.10;;;;;;;14.47;100.00;101054.34;5006466;28;20658;-75
2022/10/14 10:38:22;;;;;;;0.00;0.00;;;;;;;14.42;100.00;101059.31;4989774;28;20463;-76
2022/10/14 10:40:56;;;;;;;0.00;0.00;;;;;;;14.57;100.00;101053.50;5009382;28;20519;-75
2022/10/14 10:43:39;;;;;;;0.00;0.00;;;;;;;14.40;100.00;101047.78;5007745;28;20641;-74
2022/10/14 10:46:30;;;;;;;0.10;0.10;;;;;;;14.44;100.00;101042.94;5002667;28;20041;-75
2022/10/14 10:49:04;;;;;;;0.00;0.00;;;;;;;14.37;100.00;101048.94;4994367;28;20425;-74
2022/10/14 10:51:39;;;;;;;0.00;0.00;;;;;;;14.30;100.00;101036.13;5018932;28;20030;-77
2022/10/14 10:54:35;;;;;;;0.00;0.00;;;;;;;14.39;100.00;101033.44;5001665;28;20654;-77
2022/10/14 10:57:10;;;;;;;0.00;0.00;;;;;;;14.43;100.00;101035.88;4982656;28;20446;-76
2022/10/14 10:59:51;;;;;;;0.00;0.00;;;;;;;14.28;100.00;101020.03;5004319;28;20068;-76
2022/10/14 11:02:36;;;;;;;0.10;0.10;;;;;;;14.42;100.00;101039.56;4988473;28;20072;-75
2022/10/14 11:05:03;;;;;;;0.00;0.00;;;;;;;14.29;100.00;101040.66;5001577;28;20034;-80
2022/10/14 11:13:56;;;;;;;0.10;0.10;;;;;;;14.03;100.00;101007.94;5005143;28;20041;-78
2022/10/14 11:16:45;;;;;;;0.00;0.00;;;;;;;14.01;100.00;101010.75;5001059;28;20420;-74
2022/10/14 11:19:20;;;;;;;0.00;0.00;;;;;;;13.98;100.00;100975.94;5017043;28;20021;-72
2022/10/14 11:22:06;;;;;;;0.00;0.00;;;;;;;14.17;100.00;101014.78;5017256;28;21525;-74
2022/10/14 11:24:53;;;;;;;0.00;0.00;;;;;;;14.06;100.00;101008.50;5001888;28;20303;-73
2022/10/14 11:27:42;;;;;;;0.00;0.00;;;;;;;14.17;100.00;101006.69;4998302;28;20067;-73
2022/10/14 11:30:23;;;;;;;0.00;0.00;;;;;;;14.15;100.00;101009.50;5016421;28;20032;-76
2022/10/14 11:32:55;;;;;;;0.10;0.10;;;;;;;14.18;100.00;101003.84;5002070;28;20032;-75